createdAt,value
2023-03-27T00:00:13.310Z,100445.06
2023-03-27T00:02:41.837Z,100446.78
2023-03-27T00:05:10.464Z,100458.09
2023-03-27T00:07:41.422Z,100462.47
2023-03-27T00:10:10.285Z,100468.56
2023-03-27T00:12:39.160Z,100481.59
2023-03-27T00:15:08.480Z,100478.09
2023-03-27T00:17:37.503Z,100487.69
2023-03-27T00:20:06.823Z,100504.19
2023-03-27T00:22:36.023Z,100492.91
2023-03-27T00:25:06.278Z,100494.66
2023-03-27T00:27:34.417Z,100492.03
2023-03-27T00:30:05.150Z,100492.06
2023-03-27T00:32:34.632Z,100501.66
2023-03-27T00:35:03.007Z,100505.97
2023-03-27T00:37:31.395Z,100503.38
2023-03-27T00:39:59.656Z,100511.19
2023-03-27T00:42:29.248Z,100509.47
2023-03-27T00:44:57.492Z,100508.59
2023-03-27T00:47:33.044Z,100512.06
2023-03-27T00:50:05.290Z,100503.41
2023-03-27T00:52:34.109Z,100512.13
2023-03-27T00:55:06.133Z,100515.59
2023-03-27T00:57:37.025Z,100519.94
2023-03-27T01:00:13.317Z,100526.88
2023-03-27T01:02:45.087Z,100518.19
2023-03-27T01:05:15.570Z,100517.28
2023-03-27T01:08:01.352Z,100519.91
2023-03-27T01:10:45.385Z,100523.41
2023-03-27T01:13:28.155Z,100532.06
2023-03-27T01:16:00.109Z,100532.06
2023-03-27T01:18:38.469Z,100535.59
2023-03-27T01:21:28.456Z,100533.88
2023-03-27T01:24:29.886Z,100540.84
2023-03-27T01:27:04.381Z,100539.09
2023-03-27T01:29:49.268Z,100540.84
2023-03-27T01:32:46.685Z,100539.97
2023-03-27T01:35:29.581Z,100541.69
2023-03-27T01:38:20.923Z,100546.91
2023-03-27T01:40:58.431Z,100539.97
2023-03-27T01:43:34.643Z,100549.50
2023-03-27T01:46:09.276Z,100541.69
2023-03-27T01:48:44.848Z,100542.59
2023-03-27T01:51:18.224Z,100546.91
2023-03-27T01:53:52.232Z,100545.19
2023-03-27T01:56:26.809Z,100533.94
2023-03-27T01:59:04.620Z,100540.88
2023-03-27T02:01:37.938Z,100549.59
2023-03-27T02:04:12.403Z,100546.09
2023-03-27T02:06:43.853Z,100547.84
2023-03-27T02:09:17.461Z,100554.78
2023-03-27T02:11:52.557Z,100553.06
2023-03-27T02:14:24.838Z,100563.47
2023-03-27T02:16:58.189Z,100560.00
2023-03-27T02:19:33.637Z,100568.69
2023-03-27T02:22:02.146Z,100564.34
2023-03-27T02:24:38.768Z,100572.19
2023-03-27T02:27:13.944Z,100579.09
2023-03-27T02:29:54.840Z,100572.19
2023-03-27T02:32:35.157Z,100576.47
2023-03-27T02:35:13.648Z,100589.53
2023-03-27T02:37:52.336Z,100592.97
2023-03-27T02:40:40.045Z,100592.13
2023-03-27T02:43:38.467Z,100598.19
2023-03-27T02:46:14.848Z,100594.72
2023-03-27T02:48:47.048Z,100590.38
2023-03-27T02:51:19.619Z,100596.47
2023-03-27T02:53:54.025Z,100597.34
2023-03-27T02:56:26.216Z,100602.53
2023-03-27T02:59:00.613Z,100603.41
2023-03-27T03:01:38.423Z,100600.81
2023-03-27T03:04:29.956Z,100605.13
2023-03-27T03:07:18.679Z,100617.28
2023-03-27T03:09:46.940Z,100618.16
2023-03-27T03:12:15.069Z,100615.56
2023-03-27T03:14:47.181Z,100619.88
2023-03-27T03:17:16.948Z,100614.69
2023-03-27T03:19:46.731Z,100624.22
2023-03-27T03:22:15.081Z,100625.06
2023-03-27T03:24:43.832Z,100638.09
2023-03-27T03:27:15.789Z,100638.97
2023-03-27T03:29:53.187Z,100642.44
2023-03-27T03:32:24.404Z,100635.50
2023-03-27T03:34:54.298Z,100641.56
2023-03-27T03:37:28.435Z,100650.22
2023-03-27T03:39:58.167Z,100639.81
2023-03-27T03:42:26.333Z,100651.97
2023-03-27T03:44:55.830Z,100651.97
2023-03-27T03:47:24.632Z,100643.28
2023-03-27T03:49:52.777Z,100644.13
2023-03-27T03:52:21.104Z,100638.91
2023-03-27T03:54:49.328Z,100649.31
2023-03-27T03:57:18.480Z,100641.53
2023-03-27T04:00:02.374Z,100643.25
2023-03-27T04:02:45.509Z,100651.91
2023-03-27T04:05:17.022Z,100655.38
2023-03-27T04:07:46.023Z,100653.63
2023-03-27T04:10:22.098Z,100656.22
2023-03-27T04:12:51.430Z,100669.16
2023-03-27T04:15:39.707Z,100669.13
2023-03-27T04:18:21.199Z,100663.03
2023-03-27T04:20:50.339Z,100670.78
2023-03-27T04:23:20.874Z,100678.53
2023-03-27T04:25:49.441Z,100681.97
2023-03-27T04:28:23.392Z,100687.19
2023-03-27T04:31:07.492Z,100681.97
2023-03-27T04:33:46.730Z,100686.34
2023-03-27T04:36:34.607Z,100691.53
2023-03-27T04:39:10.627Z,100695.00
2023-03-27T04:41:39.030Z,100698.38
2023-03-27T04:44:09.029Z,100702.72
2023-03-27T04:46:42.590Z,100700.94
2023-03-27T04:49:13.262Z,100702.63
2023-03-27T04:51:59.936Z,100699.97
2023-03-27T04:54:31.925Z,100699.97
2023-03-27T04:57:01.934Z,100688.72
2023-03-27T04:59:31.732Z,100696.50
2023-03-27T05:02:21.343Z,100697.34
2023-03-27T05:04:58.398Z,100689.50
2023-03-27T05:07:32.667Z,100695.56
2023-03-27T05:10:03.844Z,100697.28
2023-03-27T05:12:33.178Z,100694.69
2023-03-27T05:15:06.300Z,100701.56
2023-03-27T05:17:41.987Z,100700.66
2023-03-27T05:20:14.737Z,100698.91
2023-03-27T05:22:44.704Z,100697.19
2023-03-27T05:25:27.340Z,100705.78
2023-03-27T05:27:56.381Z,100712.66
2023-03-27T05:30:28.110Z,100706.53
2023-03-27T05:33:14.409Z,100721.97
2023-03-27T05:35:43.242Z,100716.72
2023-03-27T05:38:12.157Z,100728.75
2023-03-27T05:40:47.115Z,100730.41
2023-03-27T05:43:18.365Z,100730.25
2023-03-27T05:45:46.707Z,100728.53
2023-03-27T05:48:16.233Z,100733.63
2023-03-27T05:50:45.806Z,100730.13
2023-03-27T05:53:19.774Z,100736.97
2023-03-27T05:56:07.195Z,100745.41
2023-03-27T05:58:47.206Z,100746.22
2023-03-27T06:01:15.403Z,100742.72
2023-03-27T06:03:45.263Z,100755.59
2023-03-27T06:06:19.933Z,100760.78
2023-03-27T06:08:48.655Z,100763.38
2023-03-27T06:11:16.787Z,100769.41
2023-03-27T06:13:47.135Z,100763.28
2023-03-27T06:16:20.753Z,100765.72
2023-03-27T06:19:09.466Z,100770.88
2023-03-27T06:21:46.192Z,100774.38
2023-03-27T06:24:14.633Z,100778.44
2023-03-27T06:26:43.607Z,100786.94
2023-03-27T06:29:13.327Z,100775.84
2023-03-27T06:31:47.998Z,100781.09
2023-03-27T06:34:25.319Z,100789.69
2023-03-27T06:37:00.006Z,100782.81
2023-03-27T06:39:28.918Z,100791.63
2023-03-27T06:41:58.371Z,100799.47
2023-03-27T06:44:36.649Z,100791.72
2023-03-27T06:47:14.152Z,100802.13
2023-03-27T06:50:02.882Z,100796.97
2023-03-27T06:52:31.239Z,100801.28
2023-03-27T06:55:15.080Z,100796.97
2023-03-27T06:57:53.278Z,100800.50
2023-03-27T07:00:24.720Z,100804.91
2023-03-27T07:03:12.127Z,100812.81
2023-03-27T07:06:08.032Z,100803.50
2023-03-27T07:08:48.958Z,100805.44
2023-03-27T07:11:18.553Z,100801.19
2023-03-27T07:13:56.636Z,100816.84
2023-03-27T07:16:28.603Z,100819.53
2023-03-27T07:19:01.220Z,100823.94
2023-03-27T07:21:32.912Z,100819.81
2023-03-27T07:24:01.391Z,100827.72
2023-03-27T07:26:34.359Z,100831.28
2023-03-27T07:29:10.545Z,100828.75
2023-03-27T07:31:55.349Z,100830.50
2023-03-27T07:34:33.954Z,100824.50
2023-03-27T07:37:09.164Z,100826.28
2023-03-27T07:39:41.132Z,100824.63
2023-03-27T07:42:09.812Z,100825.59
2023-03-27T07:44:51.884Z,100830.06
2023-03-27T07:47:20.074Z,100824.09
2023-03-27T07:49:48.226Z,100822.41
2023-03-27T07:52:23.415Z,100827.66
2023-03-27T07:54:57.984Z,100822.50
2023-03-27T07:57:39.456Z,100826.03
2023-03-27T08:00:22.825Z,100822.69
2023-03-27T08:03:07.409Z,100819.25
2023-03-27T08:05:36.075Z,100820.19
2023-03-27T08:08:12.377Z,100825.47
2023-03-27T08:10:47.421Z,100821.16
2023-03-27T08:13:18.345Z,100812.50
2023-03-27T08:15:46.647Z,100821.22
2023-03-27T08:18:23.062Z,100817.81
2023-03-27T08:20:57.225Z,100818.69
2023-03-27T08:23:28.814Z,100809.97
2023-03-27T08:26:16.068Z,100823.00
2023-03-27T08:29:03.766Z,100826.47
2023-03-27T08:31:34.361Z,100825.59
2023-03-27T08:34:05.684Z,100830.78
2023-03-27T08:36:44.208Z,100836.03
2023-03-27T08:39:14.511Z,100838.56
2023-03-27T08:42:06.231Z,100845.50
2023-03-27T08:44:38.454Z,100846.31
2023-03-27T08:47:18.073Z,100842.81
2023-03-27T08:49:56.786Z,100848.84
2023-03-27T08:52:29.858Z,100850.53
2023-03-27T08:55:06.793Z,100854.88
2023-03-27T08:57:40.867Z,100853.09
2023-03-27T09:00:23.448Z,100847.84
2023-03-27T09:03:05.988Z,100854.78
2023-03-27T09:05:42.557Z,100859.19
2023-03-27T09:08:21.320Z,100858.34
2023-03-27T09:10:52.857Z,100859.13
2023-03-27T09:13:33.186Z,100862.59
2023-03-27T09:16:03.323Z,100863.41
2023-03-27T09:18:37.346Z,100864.16
2023-03-27T09:21:16.291Z,100873.59
2023-03-27T09:23:46.578Z,100864.78
2023-03-27T09:26:37.307Z,100863.00
2023-03-27T09:29:20.416Z,100877.78
2023-03-27T09:31:57.145Z,100866.50
2023-03-27T09:34:28.618Z,100873.25
2023-03-27T09:37:00.362Z,100873.16
2023-03-27T09:39:34.012Z,100873.25
2023-03-27T09:42:20.046Z,100875.66
2023-03-27T09:44:52.214Z,100871.22
2023-03-27T09:47:26.554Z,100877.19
2023-03-27T09:49:58.846Z,100878.97
2023-03-27T09:52:43.833Z,100869.31
2023-03-27T09:55:26.929Z,100882.38
2023-03-27T09:58:00.646Z,100865.44
2023-03-27T10:00:32.102Z,100863.34
2023-03-27T10:03:03.933Z,100867.59
2023-03-27T10:05:33.768Z,100863.97
2023-03-27T10:08:29.278Z,100863.03
2023-03-27T10:11:19.817Z,100864.97
2023-03-27T10:13:53.306Z,100864.41
2023-03-27T10:16:24.971Z,100860.84
2023-03-27T10:19:04.587Z,100860.13
2023-03-27T10:21:42.771Z,100859.59
2023-03-27T10:24:22.120Z,100857.81
2023-03-27T10:27:19.510Z,100857.09
2023-03-27T10:30:30.967Z,100853.66
2023-03-27T10:33:15.121Z,100864.97
2023-03-27T10:35:50.800Z,100870.84
2023-03-27T10:38:27.866Z,100867.06
2023-03-27T10:41:28.819Z,100861.03
2023-03-27T10:43:59.191Z,100863.41
2023-03-27T10:46:31.564Z,100870.94
2023-03-27T10:49:18.177Z,100857.97
2023-03-27T10:51:51.994Z,100869.78
2023-03-27T10:54:36.823Z,100860.22
2023-03-27T10:57:11.458Z,100874.31
2023-03-27T10:59:45.403Z,100873.44
2023-03-27T11:02:33.848Z,100863.91
2023-03-27T11:05:07.814Z,100855.63
2023-03-27T11:07:43.964Z,100860.28
2023-03-27T11:10:21.090Z,100865.06
2023-03-27T11:12:57.446Z,100867.06
2023-03-27T11:15:32.963Z,100871.44
2023-03-27T11:18:08.069Z,100869.75
2023-03-27T11:20:47.036Z,100877.66
2023-03-27T11:23:41.099Z,100880.47
2023-03-27T11:26:34.046Z,100883.13
2023-03-27T11:29:09.402Z,100878.81
2023-03-27T11:31:47.274Z,100881.56
2023-03-27T11:34:35.666Z,100881.56
2023-03-27T11:37:32.023Z,100883.28
2023-03-27T11:40:06.990Z,100891.06
2023-03-27T11:42:40.754Z,100884.88
2023-03-27T11:45:13.241Z,100884.00
2023-03-27T11:47:59.181Z,100882.25
2023-03-27T11:50:39.647Z,100888.09
2023-03-27T11:53:23.543Z,100884.47
2023-03-27T11:56:24.728Z,100879.16
2023-03-27T11:59:13.674Z,100888.66
2023-03-27T12:01:59.359Z,100876.44
2023-03-27T12:04:41.414Z,100881.56
2023-03-27T12:07:48.259Z,100880.47
2023-03-27T12:10:29.484Z,100871.50
2023-03-27T12:13:41.732Z,100872.41
2023-03-27T12:16:36.444Z,100871.59
2023-03-27T12:19:29.615Z,100868.97
2023-03-27T12:22:25.685Z,100873.69
2023-03-27T12:25:21.873Z,100871.16
2023-03-27T12:28:01.399Z,100867.56
2023-03-27T12:30:47.679Z,100880.66
2023-03-27T12:33:38.011Z,100874.75
2023-03-27T12:36:11.240Z,100881.97
2023-03-27T12:38:43.136Z,100880.13
2023-03-27T12:41:24.062Z,100878.53
2023-03-27T12:44:14.423Z,100874.69
2023-03-27T12:47:09.018Z,100883.63
2023-03-27T12:49:47.417Z,100884.00
2023-03-27T12:52:25.526Z,100877.34
2023-03-27T12:55:28.555Z,100881.28
2023-03-27T12:58:00.743Z,100880.84
2023-03-27T13:00:54.911Z,100870.31
2023-03-27T13:03:52.802Z,100867.91
2023-03-27T13:06:36.565Z,100865.28
2023-03-27T13:09:25.874Z,100859.25
2023-03-27T13:12:19.487Z,100868.47
2023-03-27T13:15:04.347Z,100865.91
2023-03-27T13:17:51.692Z,100860.56
2023-03-27T13:20:32.711Z,100862.03
2023-03-27T13:23:12.888Z,100861.72
2023-03-27T13:26:03.286Z,100860.53
2023-03-27T13:28:38.203Z,100851.09
2023-03-27T13:31:55.847Z,100845.34
2023-03-27T13:35:04.884Z,100843.38
2023-03-27T13:37:48.293Z,100840.59
2023-03-27T13:40:24.630Z,100844.38
2023-03-27T13:43:07.812Z,100843.81
2023-03-27T13:45:46.564Z,100835.56
2023-03-27T13:49:00.195Z,100844.06
2023-03-27T13:51:50.328Z,100846.72
2023-03-27T13:54:46.226Z,100841.47
2023-03-27T13:57:29.248Z,100847.63
2023-03-27T14:00:30.943Z,100835.28
2023-03-27T14:03:37.265Z,100833.50
2023-03-27T14:06:39.181Z,100840.34
2023-03-27T14:09:18.059Z,100832.50
2023-03-27T14:12:13.684Z,100834.03
2023-03-27T14:15:17.022Z,100829.69
2023-03-27T14:18:05.969Z,100831.41
2023-03-27T14:20:47.769Z,100818.38
2023-03-27T14:23:23.427Z,100812.63
2023-03-27T14:26:03.623Z,100820.16
2023-03-27T14:28:46.815Z,100827.19
2023-03-27T14:31:19.053Z,100812.22
2023-03-27T14:34:02.847Z,100817.56
2023-03-27T14:36:36.039Z,100813.09
2023-03-27T14:39:17.188Z,100820.03
2023-03-27T14:41:55.700Z,100826.41
2023-03-27T14:44:25.986Z,100823.69
2023-03-27T14:47:00.782Z,100822.94
2023-03-27T14:49:36.214Z,100825.47
2023-03-27T14:52:09.124Z,100820.69
2023-03-27T14:54:58.138Z,100819.22
2023-03-27T14:57:32.206Z,100821.09
2023-03-27T15:00:07.037Z,100822.00
2023-03-27T15:02:42.099Z,100827.00
2023-03-27T15:05:12.706Z,100825.09
2023-03-27T15:07:45.155Z,100816.34
2023-03-27T15:10:26.265Z,100820.84
2023-03-27T15:13:12.971Z,100817.25
2023-03-27T15:15:50.253Z,100815.66
2023-03-27T15:18:28.250Z,100811.34
2023-03-27T15:21:01.760Z,100815.72
2023-03-27T15:23:36.773Z,100807.84
2023-03-27T15:26:14.940Z,100810.50
2023-03-27T15:28:49.954Z,100798.47
2023-03-27T15:31:18.822Z,100804.69
2023-03-27T15:33:53.655Z,100801.06
2023-03-27T15:36:27.894Z,100799.84
2023-03-27T15:38:56.722Z,100794.50
2023-03-27T15:41:44.935Z,100789.63
2023-03-27T15:44:18.489Z,100792.00
2023-03-27T15:46:50.848Z,100787.72
2023-03-27T15:49:22.433Z,100781.59
2023-03-27T15:51:50.993Z,100769.63
2023-03-27T15:54:29.074Z,100788.88
2023-03-27T15:57:10.417Z,100786.34
2023-03-27T15:59:52.434Z,100783.72
2023-03-27T16:02:23.072Z,100777.59
2023-03-27T16:04:55.081Z,100780.22
2023-03-27T16:07:27.946Z,100771.28
2023-03-27T16:09:59.771Z,100772.03
2023-03-27T16:12:34.022Z,100764.31
2023-03-27T16:15:08.022Z,100771.56
2023-03-27T16:17:41.195Z,100771.22
2023-03-27T16:20:43.620Z,100764.66
2023-03-27T16:23:11.773Z,100767.59
2023-03-27T16:25:41.274Z,100766.97
2023-03-27T16:28:12.422Z,100773.38
2023-03-27T16:30:42.016Z,100777.03
2023-03-27T16:33:16.351Z,100764.06
2023-03-27T16:35:45.982Z,100770.22
2023-03-27T16:38:14.751Z,100765.78
2023-03-27T16:40:43.101Z,100765.69
2023-03-27T16:43:12.585Z,100765.69
2023-03-27T16:45:41.487Z,100757.72
2023-03-27T16:48:11.665Z,100767.16
2023-03-27T16:50:40.204Z,100760.97
2023-03-27T16:53:08.352Z,100760.81
2023-03-27T16:55:36.594Z,100762.47
2023-03-27T16:58:04.786Z,100767.72
2023-03-27T17:00:34.365Z,100762.47
2023-03-27T17:03:02.508Z,100762.34
2023-03-27T17:05:34.337Z,100756.97
2023-03-27T17:08:05.341Z,100747.28
2023-03-27T17:10:34.911Z,100744.84
2023-03-27T17:13:03.482Z,100748.53
2023-03-27T17:15:31.556Z,100757.66
2023-03-27T17:18:01.020Z,100753.56
2023-03-27T17:20:29.299Z,100745.84
2023-03-27T17:22:57.800Z,100747.72
2023-03-27T17:25:26.475Z,100759.19
2023-03-27T17:27:54.612Z,100755.75
2023-03-27T17:30:36.702Z,100753.19
2023-03-27T17:33:09.214Z,100751.56
2023-03-27T17:35:39.742Z,100749.13
2023-03-27T17:38:08.681Z,100759.78
2023-03-27T17:40:39.992Z,100747.78
2023-03-27T17:43:08.265Z,100745.34
2023-03-27T17:45:36.574Z,100752.50
2023-03-27T17:48:07.012Z,100749.19
2023-03-27T17:50:36.515Z,100744.09
2023-03-27T17:53:05.018Z,100758.19
2023-03-27T17:55:33.123Z,100750.38
2023-03-27T17:58:08.351Z,100760.91
2023-03-27T18:00:38.613Z,100747.91
2023-03-27T18:03:08.821Z,100746.25
2023-03-27T18:05:39.086Z,100747.22
2023-03-27T18:08:08.811Z,100752.53
2023-03-27T18:10:38.033Z,100754.41
2023-03-27T18:13:07.432Z,100748.38
2023-03-27T18:15:35.765Z,100751.97
2023-03-27T18:18:04.011Z,100747.72
2023-03-27T18:20:32.237Z,100745.25
2023-03-27T18:23:01.674Z,100747.97
2023-03-27T18:25:30.402Z,100741.94
2023-03-27T18:27:58.509Z,100735.09
2023-03-27T18:30:26.719Z,100743.84
2023-03-27T18:32:54.854Z,100743.88
2023-03-27T18:35:23.194Z,100742.19
2023-03-27T18:37:51.269Z,100741.34
2023-03-27T18:40:21.073Z,100738.78
2023-03-27T18:42:49.881Z,100742.25
2023-03-27T18:45:18.598Z,100742.25
2023-03-27T18:47:46.737Z,100735.31
2023-03-27T18:50:15.883Z,100743.97
2023-03-27T18:52:44.551Z,100745.72
2023-03-27T18:55:13.400Z,100742.22
2023-03-27T18:57:42.862Z,100750.81
2023-03-27T19:00:18.546Z,100754.25
2023-03-27T19:02:47.002Z,100762.91
2023-03-27T19:05:16.210Z,100761.13
2023-03-27T19:07:45.052Z,100757.63
2023-03-27T19:10:14.115Z,100760.16
2023-03-27T19:12:49.688Z,100756.69
2023-03-27T19:15:40.410Z,100761.03
2023-03-27T19:18:30.091Z,100757.59
2023-03-27T19:21:14.739Z,100765.41
2023-03-27T19:23:46.051Z,100767.19
2023-03-27T19:26:19.339Z,100759.41
2023-03-27T19:28:48.860Z,100759.47
2023-03-27T19:31:17.926Z,100752.53
2023-03-27T19:33:46.364Z,100760.38
2023-03-27T19:36:14.596Z,100754.34
2023-03-27T19:38:42.799Z,100749.16
2023-03-27T19:41:11.304Z,100759.56
2023-03-27T19:43:39.485Z,100752.63
2023-03-27T19:48:42.382Z,100752.63
2023-03-27T19:51:18.359Z,100744.84
2023-03-27T19:53:50.427Z,100743.97
2023-03-27T19:56:22.542Z,100742.25
2023-03-27T19:58:50.727Z,100747.41
2023-03-27T20:01:21.548Z,100748.28
2023-03-27T20:03:49.847Z,100750.03
2023-03-27T20:06:19.556Z,100743.13
2023-03-27T20:08:47.808Z,100745.72
2023-03-27T20:11:17.392Z,100745.72
2023-03-27T20:13:56.065Z,100741.38
2023-03-27T20:16:28.858Z,100746.59
2023-03-27T20:19:03.591Z,100745.72
2023-03-27T20:21:33.790Z,100745.69
2023-03-27T20:24:02.295Z,100747.41
2023-03-27T20:26:39.421Z,100748.25
2023-03-27T20:29:18.947Z,100753.44
2023-03-27T20:31:48.627Z,100747.34
2023-03-27T20:34:20.077Z,100743.81
2023-03-27T20:36:48.672Z,100750.72
2023-03-27T20:39:28.549Z,100749.81
2023-03-27T20:41:59.303Z,100748.09
2023-03-27T20:44:35.185Z,100751.56
2023-03-27T20:47:10.990Z,100749.81
2023-03-27T20:49:41.630Z,100747.19
2023-03-27T20:52:10.824Z,100747.19
2023-03-27T20:54:39.212Z,100741.97
2023-03-27T20:57:11.315Z,100743.72
2023-03-27T20:59:39.779Z,100748.94
2023-03-27T21:02:16.581Z,100743.69
2023-03-27T21:04:44.890Z,100741.94
2023-03-27T21:07:13.094Z,100736.72
2023-03-27T21:09:41.805Z,100733.22
2023-03-27T21:12:10.263Z,100732.41
2023-03-27T21:14:38.584Z,100722.81
2023-03-27T21:17:06.806Z,100720.22
2023-03-27T21:19:36.305Z,100728.94
2023-03-27T21:22:04.452Z,100719.38
2023-03-27T21:24:32.748Z,100726.31
2023-03-27T21:27:01.112Z,100724.59
2023-03-27T21:29:29.346Z,100715.00
2023-03-27T21:31:57.527Z,100717.59
2023-03-27T21:34:25.957Z,100712.38
2023-03-27T21:36:55.383Z,100710.69
2023-03-27T21:39:23.584Z,100709.81
2023-03-27T21:41:51.702Z,100708.09
2023-03-27T21:44:19.855Z,100702.00
2023-03-27T21:46:47.916Z,100700.25
2023-03-27T21:49:16.217Z,100698.53
2023-03-27T21:51:44.997Z,100700.28
2023-03-27T21:54:14.437Z,100695.94
2023-03-27T21:56:42.593Z,100698.56
2023-03-27T21:59:10.935Z,100694.25
2023-03-27T22:01:39.137Z,100688.19
2023-03-27T22:04:07.319Z,100692.56
2023-03-27T22:06:36.345Z,100687.38
2023-03-27T22:09:04.634Z,100683.88
2023-03-27T22:11:34.075Z,100686.50
2023-03-27T22:14:02.246Z,100683.03
2023-03-27T22:16:30.950Z,100684.78
2023-03-27T22:18:59.130Z,100679.59
2023-03-27T22:21:29.136Z,100670.88
2023-03-27T22:23:59.040Z,100672.59
2023-03-27T22:26:30.039Z,100676.97
2023-03-27T22:29:00.385Z,100674.38
2023-03-27T22:31:29.175Z,100669.16
2023-03-27T22:33:57.503Z,100669.16
2023-03-27T22:36:25.713Z,100668.31
2023-03-27T22:38:54.103Z,100669.19
2023-03-27T22:41:22.162Z,100669.19
2023-03-27T22:43:50.274Z,100672.69
2023-03-27T22:46:22.087Z,100670.09
2023-03-27T22:48:54.643Z,100670.94
2023-03-27T22:51:23.032Z,100679.66
2023-03-27T22:53:51.245Z,100674.44
2023-03-27T22:56:19.391Z,100672.72
2023-03-27T22:58:47.690Z,100665.81
2023-03-27T23:01:15.948Z,100662.34
2023-03-27T23:03:45.614Z,100657.13
2023-03-27T23:06:18.889Z,100664.06
2023-03-27T23:08:48.543Z,100660.59
2023-03-27T23:11:16.791Z,100662.34
2023-03-27T23:13:45.320Z,100667.56
2023-03-27T23:16:13.683Z,100667.56
2023-03-27T23:18:42.104Z,100664.94
2023-03-27T23:21:13.742Z,100655.41
2023-03-27T23:23:42.122Z,100661.47
2023-03-27T23:26:11.554Z,100653.69
2023-03-27T23:28:41.303Z,100650.22
2023-03-27T23:31:12.728Z,100658.91
2023-03-27T23:33:43.016Z,100649.34
2023-03-27T23:36:14.972Z,100651.97
2023-03-27T23:38:43.901Z,100641.56
2023-03-27T23:41:16.391Z,100645.03
2023-03-27T23:43:44.747Z,100642.41
2023-03-27T23:46:14.027Z,100638.94
2023-03-27T23:48:44.196Z,100635.47
2023-03-27T23:51:15.644Z,100648.47
2023-03-27T23:53:44.476Z,100640.66
2023-03-27T23:56:12.828Z,100632.88
2023-03-27T23:58:41.031Z,100625.06
